To NAV CANADA Home Page Login to a new session Search on AWWS site Disclaimer Vers la page française équivalente Tips FAQ What's new on the site To the Forecasts and Observations / NOTAM section To "File a Flight Plan" website Publications and other links Update of the User's profile FIC Telephone Numbers My Weather Data Folder Route Weather Data Regional Weather Data Local Weather Data To the Forecasts and Observations / NOTAM section
Request Generated 11/13/2018 at 18:18:50 UTC . Weather information available at that time is displayed.

METAR/TAF

PANGNIRTUNG/NU    (show WxCam)

METAR CYXP 131800Z 24004KT 210V280 15SM FEW020 SCT250 M14/M19 A3002 RMK SC1CI4 SC TR SLP171=
METAR CYXP 131700Z 14005KT 15SM FEW020 BKN250 M13/M18 A3003 RMK SC1CI6 SC TR SLP173=
METAR CYXP 131600Z 13006KT 15SM FEW020 BKN250 M13/M19 A3004 RMK SC1CI6 SC TR SLP176=

TAF CYXP 131338Z 1314/1323 VRB03KT P6SM SCT250
RMK NXT FCST BY 131900Z=
Your time UTC time
Weather data provided by Environment Canada and NAV CANADA